Terminal Aerodrome Forecast
Issued by NWS Jacksonville, FL

Home | Current Version | Previous Version | Text Only | Print | Product List | Glossary On
Versions: 1 2 3 4 5 6 7 8 9 10 11 12 13 14
706
FTUS42 KJAX 051120
TAFSSI
TAF
KSSI 051120Z 0512/0612 20008KT P6SM VCSH BKN035
     FM051500 20010KT P6SM VCSH BKN025 OVC035
     FM051900 07008KT 5SM -RA OVC015
     FM060600 19012KT 4SM SHRA OVC010=

USA.gov is the U.S. government's official web portal to all federal, state and local government web resources and services.